Time,TemperatureF,DewpointF,PressureIn,WindDirection,WindDirectionDegrees,WindSpeedMPH,WindSpeedGustMPH,Humidity,HourlyPrecipIn,Conditions,Clouds,dailyrainin,SoftwareType,DateUTC
2013-07-23 00:21:00,58.0,49.0,-100.00,ESE,117,1.0,4.0,72,-99.99,,,0.06,,2013-07-23 07:21:00,
2013-07-23 00:33:00,58.0,49.0,-100.00,ESE,117,1.0,4.0,72,-99.99,,,0.06,,2013-07-23 07:33:00,
2013-07-23 00:42:00,58.0,49.0,-100.00,ESE,117,1.0,4.0,72,-99.99,,,0.06,,2013-07-23 07:42:00,
2013-07-23 00:52:00,58.0,49.0,-100.00,ESE,117,1.0,4.0,72,-99.99,,,0.06,,2013-07-23 07:52:00,
2013-07-23 01:21:00,57.0,48.0,-100.00,ESE,118,2.0,2.0,72,0.00,,,0.05,,2013-07-23 08:21:00,
2013-07-23 01:33:00,57.0,48.0,-100.00,ESE,118,2.0,2.0,72,0.00,,,0.05,,2013-07-23 08:33:00,
2013-07-23 01:43:00,57.0,48.0,-100.00,ESE,118,2.0,2.0,72,0.00,,,0.05,,2013-07-23 08:43:00,
2013-07-23 01:52:00,57.0,48.0,-100.00,ESE,118,2.0,2.0,72,0.00,,,0.05,,2013-07-23 08:52:00,
2013-07-23 02:22:00,57.0,48.0,-100.00,SE,129,1.0,4.0,73,0.00,,,0.04,,2013-07-23 09:22:00,
2013-07-23 02:33:00,57.0,48.0,-100.00,SE,129,1.0,4.0,73,0.00,,,0.04,,2013-07-23 09:33:00,
2013-07-23 02:42:00,57.0,48.0,-100.00,SE,129,1.0,4.0,73,0.00,,,0.04,,2013-07-23 09:42:00,
2013-07-23 02:52:00,57.0,48.0,-100.00,SE,129,1.0,4.0,73,0.00,,,0.04,,2013-07-23 09:52:00,
2013-07-23 03:21:00,56.0,50.0,-100.00,ESE,114,0.0,3.0,80,0.00,,,0.04,,2013-07-23 10:21:00,
2013-07-23 03:32:00,56.0,50.0,-100.00,ESE,114,0.0,3.0,80,0.00,,,0.04,,2013-07-23 10:32:00,
2013-07-23 03:43:00,56.0,50.0,-100.00,ESE,114,0.0,3.0,80,0.00,,,0.04,,2013-07-23 10:43:00,
2013-07-23 03:52:00,56.0,50.0,-100.00,ESE,114,0.0,3.0,80,0.00,,,0.04,,2013-07-23 10:52:00,
2013-07-23 04:22:00,59.0,52.0,-100.00,ESE,120,0.0,3.0,77,0.00,,,0.04,,2013-07-23 11:22:00,
2013-07-23 04:32:00,59.0,52.0,-100.00,ESE,120,0.0,3.0,77,0.00,,,0.04,,2013-07-23 11:32:00,
2013-07-23 04:43:00,59.0,52.0,-100.00,ESE,120,0.0,3.0,77,0.00,,,0.04,,2013-07-23 11:43:00,
2013-07-23 04:52:00,59.0,52.0,-100.00,ESE,120,0.0,3.0,77,0.00,,,0.04,,2013-07-23 11:52:00,
2013-07-23 05:22:00,58.0,50.0,-100.00,ESE,120,1.0,3.0,75,0.00,,,0.04,,2013-07-23 12:22:00,
2013-07-23 05:33:00,58.0,50.0,-100.00,ESE,120,1.0,3.0,75,0.00,,,0.04,,2013-07-23 12:33:00,
2013-07-23 05:43:00,58.0,50.0,-100.00,ESE,120,1.0,3.0,75,0.00,,,0.04,,2013-07-23 12:43:00,
2013-07-23 06:22:00,58.0,52.0,-100.00,ESE,109,3.0,4.0,79,0.00,,,0.04,,2013-07-23 13:22:00,
2013-07-23 06:32:00,58.0,52.0,-100.00,ESE,109,3.0,4.0,79,0.00,,,0.04,,2013-07-23 13:32:00,
2013-07-23 06:43:00,58.0,52.0,-100.00,ESE,109,3.0,4.0,79,0.00,,,0.04,,2013-07-23 13:43:00,
2013-07-23 06:52:00,58.0,52.0,-100.00,ESE,109,3.0,4.0,79,0.00,,,0.04,,2013-07-23 13:52:00,
2013-07-23 06:53:00,59.0,54.0,-100.00,ESE,112,2.0,3.0,84,0.00,,,0.04,,2013-07-23 13:53:00,
2013-07-23 07:22:00,59.0,54.0,-100.00,ESE,112,2.0,3.0,84,0.00,,,0.04,,2013-07-23 14:22:00,
2013-07-23 07:32:00,59.0,54.0,-100.00,ESE,112,2.0,3.0,84,0.00,,,0.04,,2013-07-23 14:32:00,
2013-07-23 07:44:00,59.0,54.0,-100.00,ESE,112,2.0,3.0,84,0.00,,,0.04,,2013-07-23 14:44:00,
2013-07-23 08:24:00,67.0,57.0,-100.00,ESE,107,2.0,6.0,71,0.00,,,0.04,,2013-07-23 15:24:00,
2013-07-23 08:32:00,67.0,57.0,-100.00,ESE,107,2.0,6.0,71,0.00,,,0.04,,2013-07-23 15:32:00,
2013-07-23 08:43:00,67.0,57.0,-100.00,ESE,107,2.0,6.0,71,0.00,,,0.04,,2013-07-23 15:43:00,
2013-07-23 08:52:00,67.0,57.0,-100.00,ESE,107,2.0,6.0,71,0.00,,,0.04,,2013-07-23 15:52:00,
2013-07-23 09:22:00,68.0,54.0,-100.00,West,276,3.0,5.0,62,0.00,,,0.04,,2013-07-23 16:22:00,
2013-07-23 09:33:00,68.0,54.0,-100.00,West,276,3.0,5.0,62,0.00,,,0.04,,2013-07-23 16:33:00,
2013-07-23 09:43:00,68.0,54.0,-100.00,West,276,3.0,5.0,62,0.00,,,0.04,,2013-07-23 16:43:00,
2013-07-23 09:52:00,68.0,54.0,-100.00,West,276,3.0,5.0,62,0.00,,,0.04,,2013-07-23 16:52:00,
2013-07-23 09:53:00,73.0,54.0,-100.00,West,273,4.0,8.0,52,0.00,,,0.04,,2013-07-23 16:53:00,
2013-07-23 10:21:00,73.0,54.0,-100.00,West,273,4.0,8.0,52,0.00,,,0.04,,2013-07-23 17:21:00,
2013-07-23 10:32:00,73.0,54.0,-100.00,West,273,4.0,8.0,52,0.00,,,0.04,,2013-07-23 17:32:00,
2013-07-23 10:42:00,73.0,54.0,-100.00,West,273,4.0,8.0,52,0.00,,,0.04,,2013-07-23 17:42:00,
2013-07-23 10:53:00,77.0,55.0,-100.00,NW,304,4.0,7.0,46,0.00,,,0.04,,2013-07-23 17:53:00,
2013-07-23 11:24:00,77.0,55.0,-100.00,NW,304,4.0,7.0,46,0.00,,,0.04,,2013-07-23 18:24:00,
2013-07-23 11:33:00,77.0,55.0,-100.00,NW,304,4.0,7.0,46,0.00,,,0.04,,2013-07-23 18:33:00,
2013-07-23 11:44:00,77.0,55.0,-100.00,NW,304,4.0,7.0,46,0.00,,,0.04,,2013-07-23 18:44:00,
2013-07-23 12:24:00,78.0,53.0,-100.00,WNW,282,5.0,8.0,42,0.00,,,0.04,,2013-07-23 19:24:00,
2013-07-23 12:32:00,78.0,53.0,-100.00,WNW,282,5.0,8.0,42,0.00,,,0.04,,2013-07-23 19:32:00,
2013-07-23 12:44:00,78.0,53.0,-100.00,WNW,282,5.0,8.0,42,0.00,,,0.04,,2013-07-23 19:44:00,
2013-07-23 12:52:00,78.0,53.0,-100.00,WNW,282,5.0,8.0,42,0.00,,,0.04,,2013-07-23 19:52:00,
2013-07-23 12:53:00,79.0,51.0,-100.00,WNW,283,5.0,9.0,38,0.00,,,0.04,,2013-07-23 19:53:00,
2013-07-23 13:22:00,79.0,51.0,-100.00,WNW,283,5.0,9.0,38,0.00,,,0.04,,2013-07-23 20:22:00,
2013-07-23 13:34:00,79.0,51.0,-100.00,WNW,283,5.0,9.0,38,0.00,,,0.04,,2013-07-23 20:34:00,
2013-07-23 13:44:00,79.0,51.0,-100.00,WNW,283,5.0,9.0,38,0.00,,,0.04,,2013-07-23 20:44:00,
2013-07-23 13:53:00,80.0,50.0,-100.00,WNW,282,5.0,10.0,35,0.00,,,0.04,,2013-07-23 20:53:00,
2013-07-23 14:22:00,80.0,50.0,-100.00,WNW,282,5.0,10.0,35,0.00,,,0.04,,2013-07-23 21:22:00,
2013-07-23 14:34:00,80.0,50.0,-100.00,WNW,282,5.0,10.0,35,0.00,,,0.04,,2013-07-23 21:34:00,
2013-07-23 14:45:00,80.0,50.0,-100.00,WNW,282,5.0,10.0,35,0.00,,,0.04,,2013-07-23 21:45:00,
2013-07-23 14:53:00,80.0,50.0,-100.00,West,269,6.0,12.0,35,0.00,,,0.04,,2013-07-23 21:53:00,
2013-07-23 15:23:00,80.0,50.0,-100.00,West,269,6.0,12.0,35,0.00,,,0.04,,2013-07-23 22:23:00,
2013-07-23 15:33:00,80.0,50.0,-100.00,West,269,6.0,12.0,35,0.00,,,0.04,,2013-07-23 22:33:00,
2013-07-23 15:43:00,80.0,50.0,-100.00,West,269,6.0,12.0,35,0.00,,,0.04,,2013-07-23 22:43:00,
2013-07-23 16:24:00,80.0,52.0,-100.00,West,269,5.0,11.0,38,0.00,,,0.04,,2013-07-23 23:24:00,
2013-07-23 16:34:00,80.0,52.0,-100.00,West,269,5.0,11.0,38,0.00,,,0.04,,2013-07-23 23:34:00,
2013-07-23 16:43:00,80.0,52.0,-100.00,West,269,5.0,11.0,38,0.00,,,0.04,,2013-07-23 23:43:00,
2013-07-23 16:53:00,78.0,52.0,-100.00,WNW,295,5.0,12.0,40,0.00,,,0.01,,2013-07-23 23:53:00,
2013-07-23 17:24:00,78.0,52.0,-100.00,WNW,295,5.0,12.0,40,0.00,,,0.01,,2013-07-24 00:24:00,
2013-07-23 17:34:00,78.0,52.0,-100.00,WNW,295,5.0,12.0,40,0.00,,,0.01,,2013-07-24 00:34:00,
2013-07-23 17:45:00,78.0,52.0,-100.00,WNW,295,5.0,12.0,40,0.00,,,0.01,,2013-07-24 00:45:00,
2013-07-23 17:53:00,76.0,52.0,-100.00,WNW,288,5.0,11.0,44,0.00,,,0.00,,2013-07-24 00:53:00,
2013-07-23 18:24:00,76.0,52.0,-100.00,WNW,288,5.0,11.0,44,0.00,,,0.00,,2013-07-24 01:24:00,
2013-07-23 18:32:00,76.0,52.0,-100.00,WNW,288,5.0,11.0,44,0.00,,,0.00,,2013-07-24 01:32:00,
2013-07-23 18:43:00,76.0,52.0,-100.00,WNW,288,5.0,11.0,44,0.00,,,0.00,,2013-07-24 01:43:00,
2013-07-23 19:24:00,73.0,50.0,-100.00,WNW,300,5.0,11.0,45,0.00,,,-99.99,,2013-07-24 02:24:00,
2013-07-23 19:35:00,73.0,50.0,-100.00,WNW,300,5.0,11.0,45,0.00,,,-99.99,,2013-07-24 02:35:00,
2013-07-23 19:44:00,73.0,50.0,-100.00,WNW,300,5.0,11.0,45,0.00,,,-99.99,,2013-07-24 02:44:00,
2013-07-23 19:53:00,69.0,48.0,-100.00,NW,305,5.0,10.0,47,0.00,,,0.00,,2013-07-24 02:53:00,
2013-07-23 20:23:00,69.0,48.0,-100.00,NW,305,5.0,10.0,47,0.00,,,0.00,,2013-07-24 03:23:00,
2013-07-23 20:34:00,69.0,48.0,-100.00,NW,305,5.0,10.0,47,0.00,,,0.00,,2013-07-24 03:34:00,
2013-07-23 20:43:00,69.0,48.0,-100.00,NW,305,5.0,10.0,47,0.00,,,0.00,,2013-07-24 03:43:00,
2013-07-23 21:22:00,66.0,48.0,-100.00,NNW,337,3.0,6.0,52,0.00,,,0.00,,2013-07-24 04:22:00,
2013-07-23 21:32:00,66.0,48.0,-100.00,NNW,337,3.0,6.0,52,0.00,,,0.00,,2013-07-24 04:32:00,
2013-07-23 21:43:00,66.0,48.0,-100.00,NNW,337,3.0,6.0,52,0.00,,,0.00,,2013-07-24 04:43:00,
2013-07-23 21:52:00,66.0,48.0,-100.00,NNW,337,3.0,6.0,52,0.00,,,0.00,,2013-07-24 04:52:00,
2013-07-23 22:22:00,64.0,46.0,-100.00,North,359,3.0,6.0,52,0.00,,,0.00,,2013-07-24 05:22:00,
2013-07-23 22:32:00,64.0,46.0,-100.00,North,359,3.0,6.0,52,0.00,,,0.00,,2013-07-24 05:32:00,
2013-07-23 22:43:00,64.0,46.0,-100.00,North,359,3.0,6.0,52,0.00,,,0.00,,2013-07-24 05:43:00,
2013-07-23 22:52:00,64.0,46.0,-100.00,North,359,3.0,6.0,52,0.00,,,0.00,,2013-07-24 05:52:00,
2013-07-23 22:53:00,64.0,49.0,-100.00,NW,323,3.0,5.0,58,0.00,,,0.00,,2013-07-24 05:53:00,
2013-07-23 23:24:00,64.0,49.0,-100.00,NW,323,3.0,5.0,58,0.00,,,0.00,,2013-07-24 06:24:00,
2013-07-23 23:34:00,64.0,49.0,-100.00,NW,323,3.0,5.0,58,0.00,,,0.00,,2013-07-24 06:34:00,
2013-07-23 23:43:00,64.0,49.0,-100.00,NW,323,3.0,5.0,58,0.00,,,0.00,,2013-07-24 06:43:00,